createdAt,value
2017-11-08T00:02:05.960Z,88.85
2017-11-08T00:04:33.584Z,88.91
2017-11-08T00:07:01.243Z,88.84
2017-11-08T00:09:28.855Z,89.00
2017-11-08T00:11:56.477Z,89.14
2017-11-08T00:14:24.204Z,89.13
2017-11-08T00:16:54.288Z,89.19
2017-11-08T00:19:21.977Z,89.22
2017-11-08T00:21:53.436Z,89.58
2017-11-08T00:24:26.642Z,89.66
2017-11-08T00:26:54.341Z,89.93
2017-11-08T00:29:22.024Z,89.94
2017-11-08T00:31:49.705Z,89.83
2017-11-08T00:34:17.387Z,89.77
2017-11-08T00:36:45.069Z,89.77
2017-11-08T00:39:12.689Z,89.76
2017-11-08T00:41:40.403Z,89.57
2017-11-08T00:44:08.018Z,89.64
2017-11-08T00:46:35.636Z,89.53
2017-11-08T00:49:03.300Z,89.61
2017-11-08T00:51:30.972Z,89.94
2017-11-08T00:53:58.596Z,89.86
2017-11-08T00:56:26.340Z,89.96
2017-11-08T00:58:53.959Z,89.95
2017-11-08T01:01:21.571Z,89.90
2017-11-08T01:03:49.248Z,89.95
2017-11-08T01:06:16.927Z,90.26
2017-11-08T01:08:44.547Z,90.18
2017-11-08T01:11:12.215Z,90.08
2017-11-08T01:13:39.863Z,90.04
2017-11-08T01:16:07.535Z,90.00
2017-11-08T01:18:35.249Z,89.85
2017-11-08T01:21:02.912Z,89.62
2017-11-08T01:23:30.535Z,89.67
2017-11-08T01:25:58.207Z,89.68
2017-11-08T01:28:25.899Z,89.79
2017-11-08T01:30:53.520Z,89.93
2017-11-08T01:33:21.184Z,90.02
2017-11-08T01:35:48.795Z,90.04
2017-11-08T01:38:16.412Z,90.04
2017-11-08T01:40:44.159Z,90.00
2017-11-08T01:43:11.843Z,90.10
2017-11-08T01:45:42.404Z,90.12
2017-11-08T01:48:10.066Z,90.42
2017-11-08T01:50:39.628Z,90.73
2017-11-08T01:53:07.243Z,90.89
2017-11-08T01:55:35.020Z,90.75
2017-11-08T01:58:02.651Z,90.40
2017-11-08T02:00:30.289Z,90.00
2017-11-08T02:02:58.007Z,89.43
2017-11-08T02:05:25.619Z,89.01
2017-11-08T02:07:53.244Z,88.62
2017-11-08T02:10:20.894Z,88.05
2017-11-08T02:12:48.512Z,88.13
2017-11-08T02:15:16.187Z,87.69
2017-11-08T02:17:49.311Z,87.61
2017-11-08T02:20:17.059Z,87.47
2017-11-08T02:22:44.680Z,87.33
2017-11-08T02:25:13.247Z,87.21
2017-11-08T02:27:41.015Z,87.29
2017-11-08T02:30:08.707Z,87.97
2017-11-08T02:32:36.466Z,88.12
2017-11-08T02:35:04.095Z,88.44
2017-11-08T02:37:31.711Z,88.79
2017-11-08T02:39:59.388Z,88.73
2017-11-08T02:42:27.010Z,88.24
2017-11-08T02:44:54.649Z,87.59
2017-11-08T02:47:22.334Z,87.25
2017-11-08T02:49:49.936Z,87.37
2017-11-08T02:52:17.567Z,87.39
2017-11-08T02:54:45.280Z,87.48
2017-11-08T02:57:12.959Z,87.90
2017-11-08T02:59:41.343Z,88.38
2017-11-08T03:02:11.938Z,88.32
2017-11-08T03:04:45.212Z,87.69
2017-11-08T03:07:12.943Z,87.10
2017-11-08T03:09:40.561Z,86.67
2017-11-08T03:12:08.170Z,86.75
2017-11-08T03:14:35.892Z,87.00
2017-11-08T03:17:03.503Z,87.29
2017-11-08T03:19:31.169Z,87.18
2017-11-08T03:21:58.892Z,86.78
2017-11-08T03:24:26.498Z,86.33
2017-11-08T03:26:54.111Z,86.19
2017-11-08T03:29:21.783Z,86.48
2017-11-08T03:31:49.395Z,86.57
2017-11-08T03:34:17.083Z,87.42
2017-11-08T03:36:44.832Z,87.14
2017-11-08T03:39:12.480Z,86.49
2017-11-08T03:41:40.099Z,86.20
2017-11-08T03:44:07.780Z,86.44
2017-11-08T03:46:35.392Z,86.62
2017-11-08T03:49:03.016Z,86.66
2017-11-08T03:51:30.748Z,86.81
2017-11-08T03:53:58.428Z,86.79
2017-11-08T03:56:26.044Z,86.06
2017-11-08T03:58:53.783Z,85.66
2017-11-08T04:01:21.443Z,85.88
2017-11-08T04:03:49.115Z,85.92
2017-11-08T04:06:16.854Z,85.85
2017-11-08T04:08:44.524Z,85.81
2017-11-08T04:11:12.139Z,85.79
2017-11-08T04:13:39.827Z,86.17
2017-11-08T04:16:07.451Z,86.29
2017-11-08T04:18:35.081Z,86.01
2017-11-08T04:21:02.767Z,85.54
2017-11-08T04:23:30.443Z,85.32
2017-11-08T04:25:58.082Z,85.71
2017-11-08T04:28:25.756Z,85.71
2017-11-08T04:30:53.432Z,86.09
2017-11-08T04:33:21.164Z,85.93
2017-11-08T04:35:48.890Z,86.29
2017-11-08T04:38:16.503Z,86.49
2017-11-08T04:40:44.170Z,86.24
2017-11-08T04:43:11.916Z,86.12
2017-11-08T04:45:39.579Z,85.91
2017-11-08T04:48:07.263Z,85.93
2017-11-08T04:50:34.934Z,86.19
2017-11-08T04:53:02.631Z,86.24
2017-11-08T04:55:30.310Z,85.84
2017-11-08T04:57:58.034Z,85.44
2017-11-08T05:00:25.722Z,85.52
2017-11-08T05:02:53.454Z,85.33
2017-11-08T05:05:21.191Z,85.28
2017-11-08T05:07:48.823Z,85.44
2017-11-08T05:10:16.443Z,85.52
2017-11-08T05:12:44.221Z,85.38
2017-11-08T05:15:11.835Z,85.19
2017-11-08T05:17:39.446Z,85.04
2017-11-08T05:20:07.131Z,84.95
2017-11-08T05:22:34.766Z,84.97
2017-11-08T05:25:02.415Z,85.25
2017-11-08T05:27:30.143Z,84.94
2017-11-08T05:29:57.823Z,84.73
2017-11-08T05:32:25.448Z,84.64
2017-11-08T05:34:53.201Z,84.50
2017-11-08T05:37:20.846Z,84.82
2017-11-08T05:39:48.531Z,84.70
2017-11-08T05:42:16.259Z,84.50
2017-11-08T05:44:43.893Z,84.13
2017-11-08T05:47:11.576Z,83.96
2017-11-08T05:49:39.359Z,83.61
2017-11-08T05:52:07.056Z,83.46
2017-11-08T05:54:34.785Z,83.38
2017-11-08T05:57:02.465Z,83.74
2017-11-08T05:59:30.136Z,83.71
2017-11-08T06:01:57.772Z,83.65
2017-11-08T06:04:25.508Z,83.57
2017-11-08T06:06:53.146Z,83.06
2017-11-08T06:09:20.781Z,82.97
2017-11-08T06:11:48.492Z,82.47
2017-11-08T06:14:16.117Z,82.49
2017-11-08T06:16:43.745Z,82.13
2017-11-08T06:19:11.416Z,81.67
2017-11-08T06:21:39.093Z,81.34
2017-11-08T06:24:06.725Z,81.35
2017-11-08T06:26:34.448Z,80.81
2017-11-08T06:29:02.060Z,80.32
2017-11-08T06:31:29.683Z,79.94
2017-11-08T06:33:57.346Z,79.24
2017-11-08T06:36:25.035Z,78.43
2017-11-08T06:38:53.052Z,78.23
2017-11-08T06:41:20.727Z,77.89
2017-11-08T06:43:48.403Z,77.50
2017-11-08T06:46:16.018Z,77.03
2017-11-08T06:48:43.691Z,76.59
2017-11-08T06:51:12.192Z,76.20
2017-11-08T06:53:42.783Z,76.23
2017-11-08T06:56:10.547Z,75.84
2017-11-08T06:58:38.165Z,75.75
2017-11-08T07:01:05.844Z,75.66
2017-11-08T07:03:33.593Z,75.07
2017-11-08T07:06:01.203Z,74.43
2017-11-08T07:08:30.649Z,73.34
2017-11-08T07:10:58.333Z,72.17
2017-11-08T07:13:25.967Z,72.60
2017-11-08T07:15:53.648Z,71.93
2017-11-08T07:18:21.391Z,71.21
2017-11-08T07:20:49.000Z,70.47
2017-11-08T07:23:16.622Z,70.67
2017-11-08T07:25:44.318Z,69.37
2017-11-08T07:28:14.463Z,68.46
2017-11-08T07:30:42.088Z,67.70
2017-11-08T07:33:09.770Z,68.28
2017-11-08T07:35:37.622Z,67.12
2017-11-08T07:38:05.312Z,66.65
2017-11-08T07:40:33.018Z,66.77
2017-11-08T07:43:00.679Z,66.57
2017-11-08T07:45:28.294Z,65.01
2017-11-08T07:47:55.993Z,65.10
2017-11-08T07:50:23.609Z,64.54
2017-11-08T07:52:51.292Z,64.30
2017-11-08T07:58:13.252Z,63.87
2017-11-08T08:00:40.936Z,64.32
2017-11-08T08:03:08.542Z,64.45
2017-11-08T08:05:36.168Z,64.82
2017-11-08T08:08:03.839Z,65.03
2017-11-08T08:10:46.099Z,65.20
2017-11-08T08:13:13.776Z,66.15
2017-11-08T08:15:41.395Z,66.12
2017-11-08T08:18:09.075Z,66.13
2017-11-08T08:20:37.436Z,65.27
2017-11-08T08:23:05.117Z,65.45
2017-11-08T08:25:32.742Z,66.21
2017-11-08T08:28:00.472Z,65.97
2017-11-08T08:30:28.110Z,65.61
2017-11-08T08:32:55.727Z,66.15
2017-11-08T08:35:23.411Z,65.74
2017-11-08T08:37:51.031Z,65.54
2017-11-08T08:40:18.708Z,65.33
2017-11-08T08:42:46.391Z,66.09
2017-11-08T08:45:14.016Z,66.07
2017-11-08T08:47:41.695Z,64.87
2017-11-08T08:50:09.371Z,64.93
2017-11-08T08:52:36.987Z,64.63
2017-11-08T08:55:04.605Z,64.38
2017-11-08T08:57:32.337Z,63.66
2017-11-08T09:00:00.018Z,62.94
2017-11-08T09:02:32.723Z,63.01
2017-11-08T09:05:00.344Z,63.51
2017-11-08T09:07:27.959Z,62.43
2017-11-08T09:09:55.631Z,61.77
2017-11-08T09:12:23.272Z,61.08
2017-11-08T09:14:50.892Z,61.23
2017-11-08T09:17:18.638Z,60.13
2017-11-08T09:19:46.260Z,59.04
2017-11-08T09:22:13.940Z,58.93
2017-11-08T09:24:47.159Z,58.61
2017-11-08T09:27:14.787Z,58.87
2017-11-08T09:29:42.476Z,58.69
2017-11-08T09:32:10.173Z,58.90
2017-11-08T09:34:43.299Z,59.32
2017-11-08T09:37:10.991Z,59.82
2017-11-08T09:39:38.600Z,59.51
2017-11-08T09:42:21.151Z,59.90
2017-11-08T09:44:48.807Z,59.50
2017-11-08T09:47:19.359Z,59.45
2017-11-08T09:49:47.088Z,58.75
2017-11-08T09:52:14.740Z,57.96
2017-11-08T09:54:42.355Z,57.77
2017-11-08T09:57:10.902Z,57.74
2017-11-08T09:59:38.571Z,57.87
2017-11-08T10:02:06.197Z,58.13
2017-11-08T10:04:33.952Z,58.92
2017-11-08T10:07:01.595Z,58.08
2017-11-08T10:09:30.235Z,57.64
2017-11-08T10:12:01.900Z,58.07
2017-11-08T10:14:29.531Z,56.86
2017-11-08T10:16:57.193Z,56.28
2017-11-08T10:19:26.839Z,56.20
2017-11-08T10:21:54.522Z,55.83
2017-11-08T10:24:22.176Z,56.74
2017-11-08T10:26:49.843Z,55.81
2017-11-08T10:29:17.525Z,56.11
2017-11-08T10:31:45.149Z,55.11
2017-11-08T10:34:12.835Z,54.78
2017-11-08T10:36:40.451Z,55.36
2017-11-08T10:39:08.086Z,53.74
2017-11-08T10:41:35.760Z,54.29
2017-11-08T10:44:03.353Z,54.86
2017-11-08T10:46:30.976Z,54.63
2017-11-08T10:48:58.714Z,54.99
2017-11-08T10:51:30.221Z,54.44
2017-11-08T10:53:57.854Z,54.64
2017-11-08T10:56:25.540Z,54.06
2017-11-08T10:58:53.304Z,54.04
2017-11-08T11:01:20.948Z,53.24
2017-11-08T11:03:51.407Z,53.67
2017-11-08T11:06:19.047Z,53.10
2017-11-08T11:08:46.740Z,53.37
2017-11-08T11:11:14.415Z,54.04
2017-11-08T11:13:48.050Z,54.19
2017-11-08T11:16:15.833Z,54.30
2017-11-08T11:18:43.681Z,55.17
2017-11-08T11:21:11.378Z,55.09
2017-11-08T11:23:41.860Z,55.51
2017-11-08T11:26:09.644Z,55.21
2017-11-08T11:28:37.400Z,55.61
2017-11-08T11:31:05.096Z,55.06
2017-11-08T11:33:32.769Z,55.12
2017-11-08T11:36:00.410Z,55.61
2017-11-08T11:38:28.969Z,56.08
2017-11-08T11:40:56.604Z,57.06
2017-11-08T11:43:24.283Z,56.99
2017-11-08T11:45:52.087Z,57.15
2017-11-08T11:48:19.732Z,56.60
2017-11-08T11:50:47.477Z,56.86
2017-11-08T11:53:15.159Z,57.67
2017-11-08T11:55:42.845Z,58.06
2017-11-08T11:58:10.559Z,58.10
2017-11-08T12:00:38.406Z,58.99
2017-11-08T12:03:06.060Z,59.13
2017-11-08T12:05:35.872Z,59.25
2017-11-08T12:08:03.641Z,59.36
2017-11-08T12:10:31.304Z,59.32
2017-11-08T12:12:58.954Z,58.17
2017-11-08T12:15:26.651Z,58.21
2017-11-08T12:17:54.339Z,58.46
2017-11-08T12:20:22.036Z,58.06
2017-11-08T12:22:49.736Z,57.59
2017-11-08T12:25:17.499Z,58.01
2017-11-08T12:27:45.132Z,58.46
2017-11-08T12:30:12.823Z,58.60
2017-11-08T12:32:40.460Z,58.98
2017-11-08T12:35:08.152Z,59.25
2017-11-08T12:37:35.944Z,59.99
2017-11-08T12:40:03.632Z,60.68
2017-11-08T12:42:31.388Z,60.54
2017-11-08T12:45:04.812Z,61.66
2017-11-08T12:47:32.444Z,60.95
2017-11-08T12:50:00.133Z,61.14
2017-11-08T12:52:27.989Z,60.56
2017-11-08T12:54:55.632Z,60.69
2017-11-08T12:57:23.270Z,60.80
2017-11-08T12:59:50.960Z,61.22
2017-11-08T13:02:18.650Z,61.35
2017-11-08T13:04:46.333Z,61.10
2017-11-08T13:07:14.084Z,61.18
2017-11-08T13:09:41.836Z,60.90
2017-11-08T13:12:10.323Z,60.65
2017-11-08T13:14:38.170Z,60.99
2017-11-08T13:17:05.872Z,60.28
2017-11-08T13:19:34.182Z,60.65
2017-11-08T13:22:02.773Z,60.30
2017-11-08T13:24:30.532Z,60.50
2017-11-08T13:26:58.188Z,60.70
2017-11-08T13:29:25.904Z,61.39
2017-11-08T13:31:53.588Z,61.71
2017-11-08T13:34:21.268Z,61.81
2017-11-08T13:36:49.020Z,62.78
2017-11-08T13:39:16.665Z,62.68
2017-11-08T13:41:44.333Z,62.67
2017-11-08T13:44:12.015Z,62.77
2017-11-08T13:46:39.737Z,62.69
2017-11-08T13:49:07.386Z,63.29
2017-11-08T13:51:35.156Z,63.04
2017-11-08T13:54:02.863Z,63.14
2017-11-08T13:56:31.526Z,63.06
2017-11-08T13:58:59.202Z,63.52
2017-11-08T14:01:27.014Z,64.02
2017-11-08T14:03:54.817Z,64.52
2017-11-08T14:06:22.586Z,64.39
2017-11-08T14:08:50.224Z,64.71
2017-11-08T14:11:17.866Z,64.56
2017-11-08T14:13:45.546Z,64.76
2017-11-08T14:16:13.224Z,65.26
2017-11-08T14:18:40.839Z,64.62
2017-11-08T14:21:08.517Z,65.13
2017-11-08T14:23:36.200Z,65.38
2017-11-08T14:26:03.830Z,65.22
2017-11-08T14:28:31.585Z,65.47
2017-11-08T14:30:59.212Z,65.96
2017-11-08T14:33:26.856Z,65.96
2017-11-08T14:35:54.592Z,66.68
2017-11-08T14:38:22.216Z,66.01
2017-11-08T14:40:49.828Z,66.91
2017-11-08T14:43:17.532Z,67.03
2017-11-08T14:45:45.155Z,67.60
2017-11-08T14:48:12.780Z,67.76
2017-11-08T14:50:40.442Z,68.09
2017-11-08T14:53:08.074Z,67.74
2017-11-08T14:55:35.702Z,68.13
2017-11-08T14:58:03.391Z,68.66
2017-11-08T15:00:31.026Z,68.95
2017-11-08T15:02:58.653Z,69.04
2017-11-08T15:05:26.348Z,69.18
2017-11-08T15:07:53.972Z,69.17
2017-11-08T15:10:21.665Z,69.52
2017-11-08T15:12:49.343Z,69.77
2017-11-08T15:15:20.000Z,70.05
2017-11-08T15:17:47.685Z,70.21
2017-11-08T15:20:21.013Z,70.61
2017-11-08T15:22:48.693Z,70.51
2017-11-08T15:25:16.412Z,70.48
2017-11-08T15:27:44.155Z,70.60
2017-11-08T15:30:17.341Z,70.82
2017-11-08T15:32:47.781Z,71.19
2017-11-08T15:35:15.417Z,71.42
2017-11-08T15:37:43.048Z,71.52
2017-11-08T15:40:10.718Z,71.88
2017-11-08T15:42:38.400Z,72.30
2017-11-08T15:45:06.037Z,72.48
2017-11-08T15:47:38.655Z,72.85
2017-11-08T15:50:06.269Z,73.08
2017-11-08T15:52:33.961Z,73.17
2017-11-08T15:55:01.629Z,73.41
2017-11-08T15:57:29.252Z,73.56
2017-11-08T15:59:56.873Z,73.77
2017-11-08T16:02:24.608Z,73.79
2017-11-08T16:04:52.237Z,73.76
2017-11-08T16:07:19.896Z,73.88
2017-11-08T16:09:47.637Z,74.02
2017-11-08T16:12:15.251Z,74.03
2017-11-08T16:14:42.876Z,73.86
2017-11-08T16:17:12.444Z,73.88
2017-11-08T16:19:40.915Z,73.71
2017-11-08T16:22:08.600Z,73.98
2017-11-08T16:24:36.257Z,74.12
2017-11-08T16:27:03.953Z,74.13
2017-11-08T16:29:33.493Z,74.10
2017-11-08T16:32:01.171Z,74.02
2017-11-08T16:34:28.909Z,74.09
2017-11-08T16:36:56.598Z,74.24
2017-11-08T16:39:24.274Z,74.38
2017-11-08T16:41:52.049Z,74.60
2017-11-08T16:44:19.737Z,74.63
2017-11-08T16:46:47.392Z,74.57
2017-11-08T16:49:15.014Z,74.76
2017-11-08T16:51:42.635Z,74.80
2017-11-08T16:54:10.377Z,75.01
2017-11-08T16:56:38.032Z,74.99
2017-11-08T16:59:05.658Z,74.95
2017-11-08T17:01:33.334Z,74.97
2017-11-08T17:04:01.018Z,74.83
2017-11-08T17:06:28.689Z,74.90
2017-11-08T17:08:56.452Z,74.77
2017-11-08T17:11:24.075Z,74.99
2017-11-08T17:13:51.760Z,75.03
2017-11-08T17:16:19.503Z,75.21
2017-11-08T17:18:47.194Z,75.21
2017-11-08T17:21:14.886Z,75.19
2017-11-08T17:23:42.628Z,75.19
2017-11-08T17:26:10.316Z,75.07
2017-11-08T17:28:37.938Z,75.14
2017-11-08T17:31:05.769Z,74.97
2017-11-08T17:33:33.401Z,74.99
2017-11-08T17:36:01.034Z,75.45
2017-11-08T17:38:28.714Z,75.13
2017-11-08T17:40:56.405Z,75.15
2017-11-08T17:43:24.025Z,75.64
2017-11-08T17:45:51.712Z,75.67
2017-11-08T17:48:19.389Z,75.51
2017-11-08T17:50:47.013Z,75.31
2017-11-08T17:53:14.756Z,75.56
2017-11-08T17:55:42.451Z,75.63
2017-11-08T17:58:10.097Z,75.60
2017-11-08T18:00:37.767Z,75.86
2017-11-08T18:03:05.441Z,75.91
2017-11-08T18:05:33.069Z,76.27
2017-11-08T18:08:00.823Z,76.22
2017-11-08T18:10:28.481Z,76.25
2017-11-08T18:12:56.184Z,76.25
2017-11-08T18:15:23.917Z,76.20
2017-11-08T18:17:51.543Z,76.18
2017-11-08T18:20:19.220Z,76.35
2017-11-08T18:22:46.900Z,76.49
2017-11-08T18:25:14.524Z,76.42
2017-11-08T18:27:42.161Z,76.42
2017-11-08T18:30:09.849Z,76.42
2017-11-08T18:32:37.571Z,76.44
2017-11-08T18:35:05.254Z,76.36
2017-11-08T18:37:32.949Z,76.48
2017-11-08T18:40:00.577Z,76.65
2017-11-08T18:42:28.264Z,76.60
2017-11-08T18:44:55.942Z,76.56
2017-11-08T18:47:23.581Z,76.58
2017-11-08T18:49:51.213Z,76.49
2017-11-08T18:52:18.892Z,76.41
2017-11-08T18:54:46.523Z,76.83
2017-11-08T18:57:14.148Z,77.00
2017-11-08T18:59:41.942Z,77.21
2017-11-08T19:02:09.621Z,77.61
2017-11-08T19:04:37.268Z,77.92
2017-11-08T19:07:05.053Z,78.25
2017-11-08T19:09:32.753Z,78.63
2017-11-08T19:12:00.436Z,78.90
2017-11-08T19:14:28.105Z,78.89
2017-11-08T19:16:55.805Z,79.14
2017-11-08T19:19:23.431Z,79.41
2017-11-08T19:21:51.163Z,79.52
2017-11-08T19:24:18.904Z,79.17
2017-11-08T19:26:46.649Z,78.76
2017-11-08T19:29:14.378Z,78.46
2017-11-08T19:31:42.072Z,78.07
2017-11-08T19:34:09.704Z,77.82
2017-11-08T19:36:37.497Z,77.84
2017-11-08T19:39:05.170Z,77.91
2017-11-08T19:41:32.824Z,77.74
2017-11-08T19:44:00.566Z,77.87
2017-11-08T19:46:28.193Z,77.63
2017-11-08T19:48:55.883Z,77.59
2017-11-08T19:51:23.666Z,77.47
2017-11-08T19:53:51.281Z,77.39
2017-11-08T19:56:18.898Z,77.27
2017-11-08T19:58:46.629Z,77.30
2017-11-08T20:01:14.309Z,77.24
2017-11-08T20:03:41.937Z,77.52
2017-11-08T20:06:09.600Z,77.43
2017-11-08T20:08:37.228Z,77.58
2017-11-08T20:11:04.973Z,77.56
2017-11-08T20:13:32.640Z,77.33
2017-11-08T20:16:00.268Z,77.08
2017-11-08T20:18:27.897Z,77.10
2017-11-08T20:20:55.619Z,77.38
2017-11-08T20:23:23.242Z,77.49
2017-11-08T20:25:50.957Z,77.51
2017-11-08T20:28:18.707Z,77.74
2017-11-08T20:30:46.320Z,77.97
2017-11-08T20:33:13.936Z,78.38
2017-11-08T20:35:41.625Z,78.62
2017-11-08T20:38:09.273Z,78.78
2017-11-08T20:40:36.944Z,79.21
2017-11-08T20:43:04.621Z,79.80
2017-11-08T20:45:32.278Z,79.71
2017-11-08T20:47:59.930Z,79.92
2017-11-08T20:50:27.668Z,80.50
2017-11-08T20:52:55.377Z,80.95
2017-11-08T20:55:23.473Z,81.24
2017-11-08T20:57:52.364Z,81.49
2017-11-08T21:00:19.988Z,81.84
2017-11-08T21:02:47.666Z,82.25
2017-11-08T21:05:15.336Z,82.44
2017-11-08T21:07:42.961Z,82.61
2017-11-08T21:10:11.528Z,82.63
2017-11-08T21:12:39.369Z,82.78
2017-11-08T21:15:06.989Z,82.86
2017-11-08T21:17:34.684Z,83.04
2017-11-08T21:20:02.533Z,83.19
2017-11-08T21:22:30.155Z,83.34
2017-11-08T21:24:58.615Z,83.30
2017-11-08T21:27:26.292Z,83.42
2017-11-08T21:29:53.980Z,83.45
2017-11-08T21:32:21.591Z,83.75
2017-11-08T21:34:49.324Z,84.06
2017-11-08T21:37:17.010Z,83.92
2017-11-08T21:39:44.637Z,83.87
2017-11-08T21:42:12.341Z,83.67
2017-11-08T21:44:40.236Z,83.71
2017-11-08T21:47:07.912Z,83.50
2017-11-08T21:49:35.596Z,83.41
2017-11-08T21:52:03.268Z,83.64
2017-11-08T21:54:30.900Z,83.75
2017-11-08T21:56:58.560Z,83.95
2017-11-08T21:59:26.183Z,83.85
2017-11-08T22:01:53.805Z,83.96
2017-11-08T22:04:21.506Z,83.81
2017-11-08T22:06:49.185Z,83.73
2017-11-08T22:09:16.869Z,83.65
2017-11-08T22:11:44.604Z,83.30
2017-11-08T22:14:12.290Z,82.97
2017-11-08T22:16:39.961Z,82.89
2017-11-08T22:19:07.644Z,82.91
2017-11-08T22:21:35.370Z,82.94
2017-11-08T22:24:02.993Z,83.03
2017-11-08T22:26:30.728Z,82.97
2017-11-08T22:28:58.344Z,82.68
2017-11-08T22:31:25.973Z,82.62
2017-11-08T22:33:53.628Z,82.79
2017-11-08T22:36:21.312Z,82.73
2017-11-08T22:38:48.997Z,82.78
2017-11-08T22:41:16.679Z,82.76
2017-11-08T22:43:44.292Z,82.68
2017-11-08T22:46:11.973Z,82.68
2017-11-08T22:48:39.705Z,82.73
2017-11-08T22:51:07.323Z,82.62
2017-11-08T22:53:34.944Z,82.75
2017-11-08T22:56:02.615Z,82.44
2017-11-08T22:58:30.296Z,82.29
2017-11-08T23:00:57.923Z,82.21
2017-11-08T23:03:25.584Z,82.58
2017-11-08T23:05:53.224Z,82.84
2017-11-08T23:08:20.840Z,83.14
2017-11-08T23:10:48.508Z,83.10
2017-11-08T23:13:16.209Z,83.19
2017-11-08T23:15:43.881Z,83.18
2017-11-08T23:18:11.574Z,83.10
2017-11-08T23:20:39.252Z,83.18
2017-11-08T23:23:06.940Z,83.43
2017-11-08T23:25:34.619Z,83.64
2017-11-08T23:28:02.232Z,83.52
2017-11-08T23:30:29.916Z,83.36
2017-11-08T23:32:57.701Z,83.53
2017-11-08T23:35:25.433Z,83.50
2017-11-08T23:37:53.056Z,83.42
2017-11-08T23:40:20.837Z,83.45
2017-11-08T23:42:48.460Z,83.24
2017-11-08T23:45:16.136Z,83.55
2017-11-08T23:47:43.798Z,83.35
2017-11-08T23:50:11.473Z,83.45
2017-11-08T23:52:39.152Z,83.68
2017-11-08T23:55:08.546Z,83.60
2017-11-08T23:57:36.220Z,84.00
